Time;durP1;ratioP1;P1;durP2;ratioP2;P2;SDS_P1;SDS_P2;PMS_P1;PMS_P2;Temp;Humidity;BMP_temperature;BMP_pressure;BME280_temperature;BME280_humidity;BME280_pressure;Samples;Min_cycle;Max_cycle;Signal;HPM_P1;HPM_P2
2023/01/05 00:01:21;;;;;;;21.55;3.88;;;10.60;99.90;;;;;;5046675;28;20285;-75
2023/01/05 00:03:49;;;;;;;17.35;4.63;;;10.60;99.90;;;;;;5044053;28;20284;-77
2023/01/05 00:06:18;;;;;;;17.98;4.13;;;10.60;99.90;;;;;;5043185;28;20249;-74
2023/01/05 00:08:46;;;;;;;21.90;4.30;;;10.60;99.90;;;;;;5053451;28;20635;-75
2023/01/05 00:22:33;;;;;;;10.63;5.00;;;10.50;99.90;;;;;;5036734;28;20243;-75
2023/01/05 00:25:02;;;;;;;9.10;4.07;;;10.60;99.90;;;;;;5038041;28;20592;-75
2023/01/05 00:27:30;;;;;;;10.05;3.13;;;10.60;99.90;;;;;;5044150;28;20282;-76
2023/01/05 00:29:58;;;;;;;12.30;3.80;;;10.60;99.90;;;;;;5044668;28;20245;-75
2023/01/05 00:32:26;;;;;;;16.38;3.78;;;10.50;99.90;;;;;;5042733;28;20218;-75
2023/01/05 00:34:56;;;;;;;21.75;3.70;;;10.50;99.90;;;;;;5048944;28;20710;-73
2023/01/05 00:37:25;;;;;;;15.98;3.55;;;10.50;99.90;;;;;;5043112;28;20202;-74
2023/01/05 00:39:53;;;;;;;17.33;5.25;;;10.50;99.90;;;;;;5040289;28;20291;-74
2023/01/05 00:42:21;;;;;;;17.20;4.57;;;10.50;99.90;;;;;;5051352;28;20194;-75
2023/01/05 00:44:48;;;;;;;9.52;3.30;;;10.60;99.90;;;;;;5046501;28;20289;-77
2023/01/05 00:47:15;;;;;;;10.18;3.42;;;10.60;99.90;;;;;;5048445;28;20241;-74
2023/01/05 00:49:42;;;;;;;9.75;2.92;;;10.60;99.90;;;;;;5039986;28;20301;-74
2023/01/05 00:52:11;;;;;;;15.65;3.25;;;10.60;99.90;;;;;;5036734;28;20264;-73
2023/01/05 00:54:37;;;;;;;9.45;3.97;;;10.60;99.90;;;;;;5037666;28;20607;-75
2023/01/05 00:57:06;;;;;;;7.65;2.92;;;10.70;99.90;;;;;;5050869;28;20599;-73
2023/01/05 00:59:33;;;;;;;15.55;2.75;;;10.70;99.90;;;;;;5048727;28;20209;-75
2023/01/05 01:02:01;;;;;;;12.35;2.30;;;10.70;99.90;;;;;;5047117;28;20296;-74
2023/01/05 01:04:28;;;;;;;12.60;3.05;;;10.70;99.90;;;;;;5046062;28;20227;-73
2023/01/05 01:06:55;;;;;;;15.38;2.60;;;10.60;99.90;;;;;;5050183;28;20231;-73
2023/01/05 01:09:23;;;;;;;12.15;3.10;;;10.60;99.90;;;;;;5050182;28;20323;-74
2023/01/05 01:11:50;;;;;;;12.32;3.65;;;10.50;99.90;;;;;;5043883;28;20285;-74
2023/01/05 01:14:17;;;;;;;5.95;3.00;;;10.50;99.90;;;;;;5050867;28;20294;-74
2023/01/05 01:16:44;;;;;;;17.08;3.72;;;10.50;99.90;;;;;;5041887;28;20269;-76
2023/01/05 01:19:14;;;;;;;9.50;2.97;;;10.50;99.90;;;;;;5048859;28;20201;-74
2023/01/05 01:21:41;;;;;;;10.95;3.58;;;10.50;99.90;;;;;;5048261;28;20292;-74
2023/01/05 01:24:15;;;;;;;10.15;3.58;;;10.50;99.90;;;;;;5050387;28;20288;-74
2023/01/05 01:26:43;;;;;;;9.07;2.72;;;10.50;99.90;;;;;;5049320;28;20312;-74
2023/01/05 01:29:10;;;;;;;6.85;2.90;;;10.50;99.90;;;;;;5041780;28;20285;-75
2023/01/05 01:31:37;;;;;;;7.15;3.13;;;10.50;99.90;;;;;;5046151;28;20623;-75
2023/01/05 01:34:05;;;;;;;14.73;3.95;;;10.50;99.90;;;;;;5046488;28;20253;-75
2023/01/05 01:36:32;;;;;;;19.20;3.30;;;10.50;99.90;;;;;;5055473;28;20235;-74
2023/01/05 01:38:59;;;;;;;6.63;2.28;;;10.50;99.90;;;;;;5046040;28;20230;-75
2023/01/05 01:41:26;;;;;;;10.02;2.78;;;10.50;99.90;;;;;;5047945;28;20239;-75
2023/01/05 01:43:57;;;;;;;8.48;2.75;;;10.50;99.90;;;;;;5052062;28;20200;-74
2023/01/05 01:46:25;;;;;;;6.75;2.90;;;10.50;99.90;;;;;;5053846;28;20267;-74
2023/01/05 01:48:56;;;;;;;5.28;2.45;;;10.50;99.90;;;;;;5051471;28;20232;-73
2023/01/05 01:51:29;;;;;;;3.00;1.67;;;10.50;99.90;;;;;;5047334;28;20254;-75
2023/01/05 01:53:59;;;;;;;6.85;2.70;;;10.50;99.90;;;;;;5046915;28;20222;-74
2023/01/05 01:56:34;;;;;;;8.63;2.88;;;10.50;99.90;;;;;;5060962;28;20219;-75
2023/01/05 01:59:03;;;;;;;5.78;2.28;;;10.40;99.90;;;;;;5061363;28;20236;-74
2023/01/05 02:01:30;;;;;;;14.40;2.85;;;10.50;99.90;;;;;;5042146;28;20200;-74
2023/01/05 02:03:57;;;;;;;4.18;1.80;;;10.50;99.90;;;;;;5049191;28;20235;-74
2023/01/05 02:06:24;;;;;;;10.20;2.38;;;10.50;99.90;;;;;;5047294;28;20253;-73
2023/01/05 02:08:51;;;;;;;4.75;2.30;;;10.50;99.90;;;;;;5053721;28;20643;-75
2023/01/05 02:11:31;;;;;;;4.57;2.20;;;10.50;99.90;;;;;;5047569;28;20291;-74
2023/01/05 02:14:11;;;;;;;8.23;2.28;;;10.50;99.90;;;;;;5051365;28;20312;-74
2023/01/05 02:16:47;;;;;;;6.85;2.05;;;10.50;99.90;;;;;;5050175;28;20676;-74
2023/01/05 02:19:43;;;;;;;15.35;3.00;;;10.50;99.90;;;;;;5034938;28;20284;-76
2023/01/05 02:22:43;;;;;;;8.77;3.22;;;10.50;99.90;;;;;;5019236;28;20664;-75
2023/01/05 02:25:35;;;;;;;8.98;2.65;;;10.40;99.90;;;;;;5049372;28;20244;-75
2023/01/05 02:28:14;;;;;;;5.50;3.83;;;10.50;99.90;;;;;;5038545;28;20293;-73
2023/01/05 02:31:03;;;;;;;6.10;3.03;;;10.50;99.90;;;;;;5030535;28;20292;-74
2023/01/05 02:33:41;;;;;;;12.15;2.30;;;10.50;99.90;;;;;;5046354;28;20304;-76
2023/01/05 02:36:16;;;;;;;6.43;2.80;;;10.60;99.90;;;;;;5054686;28;20337;-75
2023/01/05 02:38:51;;;;;;;4.75;2.25;;;10.60;99.90;;;;;;5033393;28;20229;-73
2023/01/05 02:41:23;;;;;;;10.60;2.83;;;10.60;99.90;;;;;;5045135;28;20233;-74
2023/01/05 02:43:52;;;;;;;7.38;2.50;;;10.70;99.90;;;;;;5041810;28;20726;-74
2023/01/05 02:46:20;;;;;;;8.82;1.60;;;10.70;99.90;;;;;;5046968;28;20768;-75
2023/01/05 02:48:51;;;;;;;7.65;2.05;;;10.60;99.90;;;;;;5047702;28;20198;-74
2023/01/05 02:51:23;;;;;;;5.30;2.00;;;10.60;99.90;;;;;;5041333;28;20285;-74
2023/01/05 02:53:56;;;;;;;4.25;1.30;;;10.60;99.90;;;;;;5039877;28;20255;-74
2023/01/05 02:56:27;;;;;;;6.32;1.80;;;10.60;99.90;;;;;;5046851;28;20299;-73
2023/01/05 02:58:59;;;;;;;4.57;2.47;;;10.60;99.90;;;;;;5048903;28;20736;-75
2023/01/05 03:01:31;;;;;;;5.30;2.13;;;10.60;99.90;;;;;;5053996;28;20202;-76
2023/01/05 03:04:05;;;;;;;5.43;2.35;;;10.60;99.90;;;;;;5054601;28;20234;-74
2023/01/05 03:06:37;;;;;;;5.85;2.03;;;10.60;99.90;;;;;;5043725;28;20592;-74
2023/01/05 03:09:06;;;;;;;7.78;2.30;;;10.60;99.90;;;;;;5046561;28;20238;-75
2023/01/05 03:14:28;;;;;;;7.78;2.25;;;10.60;99.90;;;;;;5049155;28;20731;-74
2023/01/05 03:17:00;;;;;;;7.70;2.67;;;10.50;99.90;;;;;;5054528;28;20321;-74
2023/01/05 03:19:39;;;;;;;6.20;2.65;;;10.60;99.90;;;;;;5053809;28;20202;-73
2023/01/05 03:36:24;;;;;;;6.65;3.72;;;10.60;99.90;;;;;;5041733;28;20231;-74
2023/01/05 03:39:01;;;;;;;14.05;3.10;;;10.60;99.90;;;;;;5055705;28;20288;-75
2023/01/05 03:41:28;;;;;;;10.77;3.78;;;10.60;99.90;;;;;;5042943;28;20278;-74
2023/01/05 03:43:56;;;;;;;21.60;5.82;;;10.60;99.90;;;;;;5050899;28;20233;-74
2023/01/05 03:46:23;;;;;;;13.07;3.05;;;10.60;99.90;;;;;;5049419;28;20327;-75
2023/01/05 03:48:52;;;;;;;18.23;3.78;;;10.60;99.90;;;;;;5049955;28;20207;-74
2023/01/05 03:51:18;;;;;;;8.27;4.32;;;10.60;99.90;;;;;;5042952;28;20692;-75
2023/01/05 03:53:45;;;;;;;11.27;3.33;;;10.70;99.90;;;;;;5049203;28;20209;-75
2023/01/05 03:56:13;;;;;;;7.45;3.22;;;10.70;99.90;;;;;;5046842;28;20312;-74
2023/01/05 03:58:40;;;;;;;11.70;3.85;;;10.70;99.90;;;;;;5054448;28;20251;-74
2023/01/05 04:01:07;;;;;;;14.70;4.28;;;10.60;99.90;;;;;;5048492;28;20235;-75
2023/01/05 04:03:35;;;;;;;15.40;3.70;;;10.60;99.90;;;;;;5052897;28;20316;-76
2023/01/05 04:06:04;;;;;;;13.68;3.78;;;10.70;99.90;;;;;;5050881;28;20221;-75
2023/01/05 04:08:31;;;;;;;8.70;3.47;;;10.70;99.90;;;;;;5048810;28;20214;-74
2023/01/05 04:11:09;;;;;;;8.48;3.08;;;10.70;99.90;;;;;;5043711;28;20205;-75
2023/01/05 04:13:36;;;;;;;11.65;4.00;;;10.70;99.90;;;;;;5038020;28;20308;-74
2023/01/05 04:16:04;;;;;;;19.73;4.78;;;10.70;99.90;;;;;;5045487;28;20352;-75
2023/01/05 04:18:30;;;;;;;8.18;3.38;;;10.70;99.90;;;;;;5042367;28;20204;-74
2023/01/05 04:20:57;;;;;;;9.60;4.00;;;10.70;99.90;;;;;;5051816;28;20647;-74
2023/01/05 04:23:26;;;;;;;9.63;3.08;;;10.70;99.90;;;;;;5037779;28;20646;-74
2023/01/05 04:25:53;;;;;;;15.13;3.85;;;10.70;99.90;;;;;;5048448;28;20707;-74
2023/01/05 04:28:20;;;;;;;11.63;3.75;;;10.70;99.90;;;;;;5047238;28;20209;-75
2023/01/05 04:30:50;;;;;;;8.55;2.67;;;10.70;99.90;;;;;;5042142;28;20301;-76
2023/01/05 04:33:17;;;;;;;9.32;3.67;;;10.70;99.90;;;;;;5048517;28;20218;-74
2023/01/05 04:35:44;;;;;;;11.18;2.78;;;10.70;99.90;;;;;;5050074;28;20223;-75
2023/01/05 04:38:13;;;;;;;8.48;4.00;;;10.70;99.90;;;;;;5048312;28;20266;-75
2023/01/05 04:40:41;;;;;;;12.10;3.88;;;10.70;99.90;;;;;;5048667;28;20638;-75
2023/01/05 04:43:10;;;;;;;11.32;3.30;;;10.70;99.90;;;;;;5047782;28;20272;-75
2023/01/05 04:45:38;;;;;;;12.02;4.45;;;10.60;99.90;;;;;;5045644;28;20233;-75
2023/01/05 04:48:05;;;;;;;20.58;3.17;;;10.60;99.90;;;;;;5034264;28;20229;-76
2023/01/05 04:50:32;;;;;;;8.55;3.40;;;10.60;99.90;;;;;;5050209;28;20298;-75
2023/01/05 04:52:59;;;;;;;8.90;3.20;;;10.70;99.90;;;;;;5046085;28;20287;-76
2023/01/05 04:55:26;;;;;;;21.73;3.45;;;10.70;99.90;;;;;;5049661;28;20271;-75
2023/01/05 04:57:55;;;;;;;14.18;3.55;;;10.70;99.90;;;;;;5047493;28;20678;-75
2023/01/05 05:00:22;;;;;;;13.40;3.47;;;10.70;99.90;;;;;;5026616;28;20221;-74
2023/01/05 05:02:49;;;;;;;15.00;4.00;;;10.60;99.90;;;;;;5048548;28;20558;-74
2023/01/05 05:05:16;;;;;;;10.20;2.83;;;10.60;99.90;;;;;;5041752;28;20322;-74
2023/01/05 05:07:43;;;;;;;14.07;3.80;;;10.60;99.90;;;;;;5052390;28;20216;-76
2023/01/05 05:10:10;;;;;;;11.98;3.22;;;10.60;99.90;;;;;;5047685;28;20235;-73
2023/01/05 05:12:40;;;;;;;11.75;3.05;;;10.60;99.90;;;;;;5053734;28;20208;-74
2023/01/05 05:15:10;;;;;;;12.68;4.40;;;10.80;99.90;;;;;;5051942;28;20243;-74
2023/01/05 05:17:37;;;;;;;13.20;3.38;;;10.70;99.90;;;;;;5052459;28;20287;-74
2023/01/05 05:20:05;;;;;;;12.57;3.33;;;10.70;99.90;;;;;;5065441;28;20209;-74
2023/01/05 05:22:32;;;;;;;9.32;3.30;;;10.70;99.90;;;;;;5053924;28;20208;-75
2023/01/05 05:24:58;;;;;;;10.77;3.35;;;10.70;99.90;;;;;;5052850;28;20305;-74
2023/01/05 05:27:25;;;;;;;9.85;4.28;;;10.60;99.90;;;;;;5048297;28;20579;-74
2023/01/05 05:29:53;;;;;;;16.85;3.88;;;10.70;99.90;;;;;;5045937;28;20247;-74
2023/01/05 05:32:22;;;;;;;10.27;4.30;;;10.70;99.90;;;;;;5051950;28;20229;-74
2023/01/05 05:34:49;;;;;;;8.75;3.15;;;10.60;99.90;;;;;;5049886;28;20235;-74
2023/01/05 05:37:16;;;;;;;18.65;4.80;;;10.70;99.90;;;;;;5040798;28;20210;-75
2023/01/05 05:39:42;;;;;;;8.85;4.60;;;10.70;99.90;;;;;;5046221;28;20206;-75
2023/01/05 05:42:09;;;;;;;7.88;2.83;;;10.60;99.90;;;;;;5046365;28;20208;-74
2023/01/05 05:44:36;;;;;;;14.50;4.60;;;10.60;99.90;;;;;;5047269;28;20279;-74
2023/01/05 05:47:03;;;;;;;12.65;3.55;;;10.70;99.90;;;;;;5052883;28;20214;-75
2023/01/05 05:49:32;;;;;;;13.63;3.10;;;10.60;99.90;;;;;;5045927;28;20207;-75
2023/01/05 05:51:59;;;;;;;9.65;3.17;;;10.60;99.90;;;;;;5039057;28;20206;-74
2023/01/05 05:54:26;;;;;;;15.32;4.13;;;10.60;99.90;;;;;;5048690;28;20268;-76
2023/01/05 05:56:54;;;;;;;18.30;4.55;;;10.60;99.90;;;;;;5050414;28;20256;-75
2023/01/05 05:59:20;;;;;;;14.00;5.50;;;10.70;99.90;;;;;;5055037;28;20198;-75
2023/01/05 06:01:47;;;;;;;8.77;2.97;;;10.70;99.90;;;;;;5050582;28;20201;-75
2023/01/05 06:04:14;;;;;;;9.25;3.05;;;10.70;99.90;;;;;;5050107;28;20295;-76
2023/01/05 06:06:43;;;;;;;8.07;3.50;;;10.70;99.90;;;;;;5040637;28;20755;-73
2023/01/05 06:09:09;;;;;;;22.52;4.45;;;10.70;99.90;;;;;;5048411;28;20285;-76
2023/01/05 06:11:37;;;;;;;15.20;3.97;;;10.70;99.90;;;;;;5043959;28;20290;-75
2023/01/05 06:14:05;;;;;;;8.77;3.63;;;10.70;99.90;;;;;;5051733;28;20225;-73
2023/01/05 06:16:33;;;;;;;11.68;4.65;;;10.70;99.90;;;;;;5050426;28;20234;-74
2023/01/05 06:19:00;;;;;;;23.13;5.25;;;10.70;99.90;;;;;;5051695;28;20230;-77
2023/01/05 06:21:27;;;;;;;12.95;4.90;;;10.70;99.90;;;;;;5051836;28;20233;-76
2023/01/05 06:23:56;;;;;;;15.35;4.07;;;10.70;99.90;;;;;;5040253;28;20224;-75
2023/01/05 06:26:23;;;;;;;13.23;3.88;;;10.70;99.90;;;;;;5053343;28;20308;-76
2023/01/05 06:28:50;;;;;;;10.75;4.10;;;10.70;99.90;;;;;;5053345;28;20234;-75
2023/01/05 06:31:17;;;;;;;16.70;5.93;;;10.60;99.90;;;;;;5052523;28;20213;-75
2023/01/05 06:33:44;;;;;;;17.55;4.05;;;10.60;99.90;;;;;;5050996;28;20247;-75
2023/01/05 06:36:12;;;;;;;14.00;4.63;;;10.60;99.90;;;;;;5044281;28;20600;-73
2023/01/05 06:38:39;;;;;;;11.85;3.75;;;10.60;99.90;;;;;;5050456;28;20208;-74
2023/01/05 06:41:07;;;;;;;14.32;5.35;;;10.60;99.90;;;;;;5044670;28;20205;-74
2023/01/05 06:43:34;;;;;;;19.65;6.20;;;10.70;99.90;;;;;;5051359;28;20206;-74
2023/01/05 06:46:01;;;;;;;13.77;3.70;;;10.60;99.90;;;;;;5038329;28;20233;-72
2023/01/05 06:48:28;;;;;;;14.73;4.00;;;10.60;99.90;;;;;;5047016;28;20262;-76
2023/01/05 06:50:55;;;;;;;26.20;4.28;;;10.50;99.90;;;;;;5046678;28;20232;-80
2023/01/05 06:53:22;;;;;;;6.88;4.82;;;10.50;99.90;;;;;;5047910;28;20277;-76
2023/01/05 06:55:50;;;;;;;20.75;5.78;;;10.50;99.90;;;;;;5047323;28;20266;-77
2023/01/05 06:58:19;;;;;;;16.95;4.30;;;10.40;99.90;;;;;;5041475;28;20201;-75
2023/01/05 07:00:46;;;;;;;15.73;3.85;;;10.40;99.90;;;;;;5053191;28;20635;-75
2023/01/05 07:03:23;;;;;;;19.67;5.50;;;10.30;99.90;;;;;;5047767;28;20262;-76
2023/01/05 07:05:51;;;;;;;18.77;5.25;;;10.30;99.90;;;;;;5067212;28;20290;-77
2023/01/05 07:08:24;;;;;;;12.57;4.40;;;10.30;99.90;;;;;;5039965;28;20292;-77
2023/01/05 07:10:51;;;;;;;7.68;4.05;;;10.30;99.90;;;;;;5041405;28;20290;-77
2023/01/05 07:13:19;;;;;;;14.52;4.70;;;10.40;99.90;;;;;;5048394;28;20549;-75
2023/01/05 07:15:46;;;;;;;19.73;3.78;;;10.30;99.90;;;;;;5048347;28;20310;-76
2023/01/05 07:18:13;;;;;;;13.45;4.90;;;10.50;99.90;;;;;;5046315;28;20651;-76
2023/01/05 07:20:40;;;;;;;15.82;4.22;;;10.40;99.90;;;;;;5046691;28;20238;-76
2023/01/05 07:23:07;;;;;;;23.08;6.50;;;10.40;99.90;;;;;;5044806;28;20285;-77
2023/01/05 07:25:34;;;;;;;17.58;5.97;;;10.40;99.90;;;;;;5046307;28;20248;-76
2023/01/05 07:28:01;;;;;;;14.45;4.25;;;10.40;99.90;;;;;;5055050;28;20646;-77
2023/01/05 07:30:29;;;;;;;13.18;4.22;;;10.40;99.90;;;;;;5049894;28;20724;-77
2023/01/05 07:32:58;;;;;;;22.20;5.88;;;10.40;99.90;;;;;;5045080;28;20288;-76
2023/01/05 07:35:25;;;;;;;12.60;3.72;;;10.40;99.90;;;;;;5041556;28;20225;-74
2023/01/05 07:37:52;;;;;;;10.93;3.33;;;10.40;99.90;;;;;;5043880;28;20206;-75
2023/01/05 07:40:19;;;;;;;15.73;4.10;;;10.40;99.90;;;;;;5048181;28;20245;-75
2023/01/05 07:42:51;;;;;;;14.20;4.07;;;10.40;99.90;;;;;;5042537;28;20281;-75
2023/01/05 07:45:17;;;;;;;9.75;3.45;;;10.30;99.90;;;;;;5044388;28;20757;-75
2023/01/05 07:47:46;;;;;;;10.60;3.08;;;10.20;99.90;;;;;;5049330;28;20203;-76
2023/01/05 07:50:13;;;;;;;9.75;2.25;;;10.10;99.90;;;;;;5052177;28;20204;-74
2023/01/05 07:52:40;;;;;;;9.50;2.40;;;10.00;99.90;;;;;;5049118;28;20554;-74
2023/01/05 07:55:07;;;;;;;10.90;2.80;;;10.00;99.90;;;;;;5052121;28;20569;-75
2023/01/05 07:57:34;;;;;;;9.63;2.70;;;9.90;99.90;;;;;;5045885;28;20295;-75
2023/01/05 08:00:01;;;;;;;11.93;3.42;;;9.90;99.90;;;;;;5049502;28;20296;-75
2023/01/05 08:02:29;;;;;;;8.88;3.25;;;9.90;99.90;;;;;;5048471;28;20656;-75
2023/01/05 08:04:57;;;;;;;10.25;3.13;;;9.80;99.90;;;;;;5048213;28;20700;-76
2023/01/05 08:07:24;;;;;;;11.23;2.33;;;9.80;99.90;;;;;;5048482;28;20205;-76
2023/01/05 08:13:58;;;;;;;8.38;3.03;;;9.80;99.90;;;;;;5038254;28;20230;-76
2023/01/05 08:15:23;;;;;;;8.05;2.65;;;9.70;99.90;;;;;;5049419;28;20242;-76
2023/01/05 08:17:52;;;;;;;5.72;2.22;;;9.70;99.90;;;;;;5047008;28;20328;-76
2023/01/05 08:20:21;;;;;;;9.63;2.80;;;9.70;99.90;;;;;;5043460;28;20209;-75
2023/01/05 08:22:50;;;;;;;5.07;1.88;;;9.80;99.90;;;;;;5041087;28;20287;-75
2023/01/05 08:25:17;;;;;;;7.07;2.35;;;9.80;99.90;;;;;;5042206;28;20591;-78
2023/01/05 08:27:45;;;;;;;11.05;2.28;;;9.70;99.90;;;;;;5045065;28;20246;-75
2023/01/05 08:30:12;;;;;;;6.38;1.52;;;9.70;99.90;;;;;;5044430;28;20202;-74
2023/01/05 08:32:41;;;;;;;6.57;1.67;;;9.70;99.90;;;;;;5050411;28;20632;-76
2023/01/05 08:35:09;;;;;;;2.47;1.40;;;9.70;99.90;;;;;;5050319;28;20322;-77
2023/01/05 08:37:39;;;;;;;2.53;1.70;;;9.70;99.90;;;;;;5050699;28;20296;-77
2023/01/05 08:40:08;;;;;;;5.20;1.63;;;9.70;99.90;;;;;;5040672;28;20209;-76
2023/01/05 08:42:36;;;;;;;3.25;1.50;;;9.80;99.90;;;;;;5045276;28;20203;-76
2023/01/05 08:45:04;;;;;;;6.72;1.50;;;9.80;99.90;;;;;;5050033;28;20259;-76
2023/01/05 08:47:32;;;;;;;3.08;1.70;;;9.80;99.90;;;;;;5038020;28;20255;-75
2023/01/05 08:50:00;;;;;;;14.52;1.98;;;9.80;99.90;;;;;;5059128;28;20203;-75
2023/01/05 08:52:27;;;;;;;7.88;2.50;;;9.80;99.90;;;;;;5062950;28;20281;-76
2023/01/05 08:54:57;;;;;;;4.55;1.27;;;9.70;99.90;;;;;;5053877;28;20301;-77
2023/01/05 08:57:24;;;;;;;5.50;1.13;;;9.70;99.90;;;;;;5042258;28;20197;-77
2023/01/05 08:59:51;;;;;;;4.43;1.30;;;10.10;99.90;;;;;;5047576;28;20214;-75
2023/01/05 09:02:18;;;;;;;6.20;1.30;;;11.00;99.90;;;;;;5046182;28;20207;-76
2023/01/05 09:04:45;;;;;;;2.72;1.70;;;12.00;99.90;;;;;;5041885;28;20195;-75
2023/01/05 09:07:12;;;;;;;6.60;1.85;;;13.20;99.90;;;;;;5043038;28;20276;-75
2023/01/05 09:09:40;;;;;;;4.23;1.10;;;14.20;99.90;;;;;;5043813;28;20207;-76
2023/01/05 09:12:09;;;;;;;3.47;1.40;;;15.00;99.90;;;;;;5043032;28;20832;-76
2023/01/05 09:14:36;;;;;;;7.70;1.40;;;15.80;99.90;;;;;;5049948;28;20486;-75
2023/01/05 09:17:03;;;;;;;9.33;1.80;;;16.40;99.90;;;;;;5048066;28;20446;-75
2023/01/05 09:19:30;;;;;;;3.20;1.73;;;17.00;99.90;;;;;;5038654;28;20496;-77
2023/01/05 09:21:57;;;;;;;3.37;1.13;;;17.60;99.90;;;;;;5040756;28;20478;-75
2023/01/05 09:24:24;;;;;;;5.57;1.70;;;18.10;99.90;;;;;;5046719;28;20525;-76
2023/01/05 09:26:51;;;;;;;5.00;1.00;;;18.10;97.80;;;;;;5047662;28;20453;-76
2023/01/05 09:29:20;;;;;;;8.67;1.97;;;18.40;97.20;;;;;;5045066;28;20451;-75
2023/01/05 09:31:47;;;;;;;3.93;1.43;;;18.30;96.70;;;;;;5042168;28;20486;-74
2023/01/05 09:34:14;;;;;;;3.70;1.50;;;18.40;95.70;;;;;;5041736;28;20534;-74
2023/01/05 09:36:41;;;;;;;7.97;1.77;;;18.50;95.70;;;;;;5035620;28;20482;-75
2023/01/05 09:39:07;;;;;;;6.70;1.90;;;18.30;95.70;;;;;;5041784;28;20456;-75
2023/01/05 09:41:38;;;;;;;7.70;1.63;;;18.20;95.30;;;;;;5038372;28;20536;-77
2023/01/05 09:44:12;;;;;;;4.80;1.60;;;18.30;95.30;;;;;;5047594;28;20854;-75
2023/01/05 09:46:45;;;;;;;3.47;1.60;;;18.20;95.20;;;;;;5044748;28;20512;-75
2023/01/05 09:49:15;;;;;;;8.00;2.83;;;18.30;95.30;;;;;;5047144;28;20472;-75
2023/01/05 09:51:42;;;;;;;5.83;1.40;;;18.20;95.00;;;;;;5048005;28;20450;-74
2023/01/05 09:54:16;;;;;;;5.63;1.87;;;18.20;95.10;;;;;;5046458;28;20477;-75
2023/01/05 09:56:46;;;;;;;10.63;1.40;;;18.20;95.50;;;;;;5054190;28;20560;-75
2023/01/05 09:59:19;;;;;;;6.90;2.03;;;19.00;94.40;;;;;;5054398;28;20450;-76
2023/01/05 10:01:50;;;;;;;9.30;1.93;;;18.90;93.70;;;;;;5054560;28;20442;-74
2023/01/05 10:04:20;;;;;;;3.73;1.83;;;18.70;93.60;;;;;;5049046;28;20461;-74
2023/01/05 10:06:52;;;;;;;6.83;2.43;;;18.70;93.90;;;;;;5046166;28;20462;-75
2023/01/05 10:09:22;;;;;;;7.50;3.10;;;18.40;94.30;;;;;;5047086;28;20504;-76
2023/01/05 10:14:46;;;;;;;12.73;2.60;;;18.70;94.00;;;;;;5043818;28;20946;-77
2023/01/05 10:17:17;;;;;;;10.93;2.83;;;18.30;93.90;;;;;;5051162;28;20439;-75
2023/01/05 10:19:45;;;;;;;11.10;2.47;;;18.20;94.10;;;;;;5040248;28;20483;-76
2023/01/05 10:22:31;;;;;;;16.40;3.47;;;18.10;94.80;;;;;;5045528;28;20978;-75
2023/01/05 10:25:05;;;;;;;8.67;2.80;;;17.80;94.70;;;;;;5046605;28;20497;-76
2023/01/05 10:27:39;;;;;;;8.37;2.37;;;17.60;95.10;;;;;;5061872;28;20456;-76
2023/01/05 10:30:17;;;;;;;8.73;1.90;;;17.20;95.80;;;;;;5022380;28;20438;-75
2023/01/05 10:32:57;;;;;;;7.33;2.50;;;16.70;96.60;;;;;;5034970;28;20443;-76
2023/01/05 10:35:50;;;;;;;10.02;1.77;;;16.30;97.30;;;;;;5042382;28;20904;-76
2023/01/05 10:38:31;;;;;;;7.13;2.72;;;15.50;98.90;;;;;;5054643;28;20255;-75
2023/01/05 10:41:05;;;;;;;8.02;2.83;;;15.10;99.90;;;;;;5025414;28;20233;-76
2023/01/05 10:43:55;;;;;;;7.90;2.45;;;14.90;99.90;;;;;;5029065;28;20204;-76
2023/01/05 10:46:22;;;;;;;12.38;2.67;;;14.40;99.90;;;;;;5053367;28;20306;-75
2023/01/05 10:48:57;;;;;;;6.40;2.00;;;13.90;99.90;;;;;;5048820;28;20227;-75
2023/01/05 10:51:25;;;;;;;5.03;1.80;;;13.80;99.90;;;;;;5045099;28;20242;-75
2023/01/05 10:53:54;;;;;;;6.18;1.70;;;13.70;99.90;;;;;;5045983;28;20280;-75
2023/01/05 10:56:24;;;;;;;16.08;2.50;;;13.60;99.90;;;;;;5042480;28;20236;-76
2023/01/05 10:59:07;;;;;;;7.13;1.90;;;13.50;99.90;;;;;;5053828;28;20233;-76
2023/01/05 11:01:36;;;;;;;6.10;2.15;;;13.20;99.90;;;;;;5043198;28;20214;-76
2023/01/05 11:04:09;;;;;;;8.65;1.83;;;13.00;99.90;;;;;;5053188;28;20238;-76
2023/01/05 11:06:37;;;;;;;9.98;1.98;;;12.80;99.90;;;;;;5050953;28;20224;-75
2023/01/05 11:09:16;;;;;;;10.00;3.15;;;12.70;99.90;;;;;;5044763;28;20299;-76
2023/01/05 11:11:44;;;;;;;9.88;2.67;;;12.60;99.90;;;;;;5045952;28;20195;-77
2023/01/05 11:14:16;;;;;;;5.40;2.00;;;12.60;99.90;;;;;;5053748;28;20298;-75
2023/01/05 11:16:49;;;;;;;8.60;3.50;;;12.30;99.90;;;;;;5047930;28;20649;-74
2023/01/05 11:19:19;;;;;;;7.03;1.92;;;12.20;99.90;;;;;;5052073;28;20213;-75
2023/01/05 11:21:47;;;;;;;11.13;2.40;;;12.00;99.90;;;;;;5045675;28;20195;-76
2023/01/05 11:24:29;;;;;;;11.88;2.20;;;11.90;99.90;;;;;;5037276;28;20689;-77
2023/01/05 11:26:58;;;;;;;6.85;3.00;;;12.00;99.90;;;;;;5037151;28;20306;-76
2023/01/05 11:29:25;;;;;;;11.07;2.10;;;11.90;99.90;;;;;;5046035;28;20203;-78
2023/01/05 11:31:55;;;;;;;6.75;2.53;;;11.80;99.90;;;;;;5040052;28;20242;-76
2023/01/05 11:34:41;;;;;;;6.25;2.00;;;11.80;99.90;;;;;;5043442;28;20273;-76
2023/01/05 11:37:21;;;;;;;8.98;3.22;;;11.70;99.90;;;;;;5022914;28;20326;-74
2023/01/05 11:39:51;;;;;;;6.65;1.70;;;11.60;99.90;;;;;;5037196;28;20257;-77
2023/01/05 11:42:20;;;;;;;8.13;1.60;;;11.40;99.90;;;;;;5039327;28;20294;-75
2023/01/05 11:44:50;;;;;;;8.40;2.33;;;11.40;99.90;;;;;;5054322;28;20292;-75
2023/01/05 11:47:29;;;;;;;5.70;2.05;;;11.40;99.90;;;;;;5044999;28;20281;-76
2023/01/05 11:50:07;;;;;;;7.38;2.20;;;11.20;99.90;;;;;;5038380;28;20288;-76
2023/01/05 11:52:37;;;;;;;8.30;2.42;;;11.20;99.90;;;;;;5045495;28;20256;-76
2023/01/05 11:55:29;;;;;;;7.38;2.25;;;11.10;99.90;;;;;;5045201;28;20635;-76
2023/01/05 11:58:14;;;;;;;9.60;2.78;;;11.10;99.90;;;;;;5051930;28;20205;-75
2023/01/05 12:01:04;;;;;;;7.63;1.50;;;11.00;99.90;;;;;;5039360;28;20204;-74
2023/01/05 12:03:49;;;;;;;8.43;1.83;;;10.90;99.90;;;;;;5044887;28;20257;-76
2023/01/05 12:06:43;;;;;;;10.48;2.00;;;10.80;99.90;;;;;;5033099;28;20222;-75
2023/01/05 12:09:18;;;;;;;8.57;1.95;;;10.70;99.90;;;;;;5015089;28;20203;-76
2023/01/05 12:11:53;;;;;;;14.13;5.47;;;10.70;99.90;;;;;;5040379;28;20207;-76
2023/01/05 12:14:47;;;;;;;5.47;1.45;;;10.70;99.90;;;;;;5040886;28;20232;-76
2023/01/05 12:17:15;;;;;;;9.18;2.90;;;10.70;99.90;;;;;;5049396;28;20223;-75
2023/01/05 12:20:19;;;;;;;12.40;1.92;;;10.70;99.90;;;;;;5063081;28;20206;-76
2023/01/05 12:23:06;;;;;;;7.15;2.65;;;10.70;99.90;;;;;;5046024;28;20281;-74
2023/01/05 12:25:53;;;;;;;7.35;2.38;;;10.80;99.90;;;;;;5045067;28;20745;-76
2023/01/05 12:28:41;;;;;;;4.18;1.85;;;10.80;99.90;;;;;;5034765;28;20237;-74
2023/01/05 12:31:20;;;;;;;8.93;3.15;;;10.90;99.90;;;;;;5050628;28;20241;-75
2023/01/05 12:34:13;;;;;;;9.90;2.35;;;11.00;99.90;;;;;;5029016;28;20220;-75
2023/01/05 12:36:53;;;;;;;10.43;3.63;;;11.00;99.90;;;;;;5031564;28;20229;-75
2023/01/05 12:39:56;;;;;;;7.22;1.25;;;11.00;99.90;;;;;;5048957;28;20233;-75
2023/01/05 12:42:43;;;;;;;4.95;2.03;;;10.90;99.90;;;;;;5049345;28;20200;-76
2023/01/05 12:46:00;;;;;;;5.13;1.33;;;10.90;99.90;;;;;;5028948;28;20313;-77
2023/01/05 12:48:31;;;;;;;6.30;1.60;;;10.80;99.90;;;;;;5025612;28;20205;-76
2023/01/05 12:51:07;;;;;;;6.55;1.73;;;10.70;99.90;;;;;;5038948;28;20574;-76
2023/01/05 12:53:43;;;;;;;10.32;2.17;;;10.70;99.90;;;;;;5022962;28;20367;-76
2023/01/05 12:56:20;;;;;;;13.88;2.83;;;10.70;99.90;;;;;;5046473;28;20304;-76
2023/01/05 12:58:55;;;;;;;5.30;2.47;;;10.70;99.90;;;;;;5045457;28;20196;-76
2023/01/05 13:01:27;;;;;;;13.15;2.85;;;10.70;99.90;;;;;;5043215;28;20205;-76
2023/01/05 13:03:58;;;;;;;7.20;1.60;;;10.80;99.90;;;;;;5050373;28;20259;-74
2023/01/05 13:06:31;;;;;;;3.85;1.65;;;10.90;99.90;;;;;;5048333;28;20258;-76
2023/01/05 13:09:01;;;;;;;7.20;2.25;;;10.80;99.90;;;;;;5052039;28;20209;-75
2023/01/05 13:11:35;;;;;;;14.55;3.97;;;10.70;99.90;;;;;;5042595;28;20209;-75
2023/01/05 13:14:07;;;;;;;14.45;2.47;;;10.70;99.90;;;;;;5022842;28;20609;-76
2023/01/05 13:16:39;;;;;;;5.72;2.13;;;10.60;99.90;;;;;;5038195;28;20221;-78
2023/01/05 13:19:12;;;;;;;7.90;2.05;;;10.60;99.90;;;;;;5035290;28;20306;-74
2023/01/05 13:21:43;;;;;;;7.72;2.47;;;10.50;99.90;;;;;;5034305;28;20711;-76
2023/01/05 13:24:16;;;;;;;8.48;2.03;;;10.50;99.90;;;;;;5047090;28;20234;-76
2023/01/05 13:26:44;;;;;;;9.02;2.80;;;10.40;99.90;;;;;;5042677;28;20213;-75
2023/01/05 13:29:21;;;;;;;5.55;1.90;;;10.40;99.90;;;;;;5047581;28;20770;-74
2023/01/05 13:32:16;;;;;;;23.35;3.63;;;10.50;99.90;;;;;;5050564;28;20646;-75
2023/01/05 13:35:18;;;;;;;9.30;2.28;;;10.50;99.90;;;;;;5046109;28;20237;-78
2023/01/05 13:38:27;;;;;;;7.93;1.88;;;10.60;99.90;;;;;;5035273;28;20232;-76